Time;durP1;ratioP1;P1;durP2;ratioP2;P2;SDS_P1;SDS_P2;PMS_P1;PMS_P2;Temp;Humidity;BMP_temperature;BMP_pressure;BME280_temperature;BME280_humidity;BME280_pressure;Samples;Min_cycle;Max_cycle;Signal;HPM_P1;HPM_P2
2022/05/24 00:01:19;;;;;;;3.92;1.48;;;;;;;15.98;63.76;94542.25;5042058;27;20041;-72
2022/05/24 00:03:46;;;;;;;1.83;1.40;;;;;;;16.05;63.84;94533.00;5036140;27;20072;-72
2022/05/24 00:06:14;;;;;;;2.58;1.67;;;;;;;16.01;63.29;94525.94;5040988;27;20053;-72
2022/05/24 00:08:43;;;;;;;2.88;1.50;;;;;;;16.12;63.20;94527.44;5035922;27;20044;-71
2022/05/24 00:11:11;;;;;;;2.30;1.48;;;;;;;16.06;63.48;94518.00;5035852;27;20072;-74
2022/05/24 00:13:38;;;;;;;2.55;1.60;;;;;;;16.05;63.25;94521.72;5109433;27;20046;-71
2022/05/24 00:16:05;;;;;;;1.95;1.42;;;;;;;16.11;62.97;94519.84;5035841;27;20545;-72
2022/05/24 00:18:32;;;;;;;3.58;1.65;;;;;;;16.19;63.47;94538.44;5036119;27;20592;-71
2022/05/24 00:21:00;;;;;;;1.95;1.63;;;;;;;16.12;63.81;94530.06;5038453;27;20088;-71
2022/05/24 00:23:29;;;;;;;2.45;1.90;;;;;;;16.07;64.11;94537.97;5038807;27;20037;-71
2022/05/24 00:25:59;;;;;;;2.33;1.45;;;;;;;16.13;64.63;94549.25;5038633;27;21317;-71
2022/05/24 00:28:28;;;;;;;2.90;1.30;;;;;;;16.18;64.35;94539.47;5040903;27;20037;-71
2022/05/24 00:30:56;;;;;;;2.83;2.00;;;;;;;16.13;64.57;94529.00;5037987;27;20424;-71
2022/05/24 00:33:23;;;;;;;3.13;1.60;;;;;;;16.12;65.31;94530.06;5036304;27;20041;-70
2022/05/24 00:35:51;;;;;;;3.88;1.58;;;;;;;16.10;65.15;94529.56;5039497;27;20033;-71
2022/05/24 00:38:36;;;;;;;3.25;2.03;;;;;;;15.90;66.49;94514.72;5039403;27;20029;-71
2022/05/24 00:41:26;;;;;;;4.72;2.78;;;;;;;15.88;67.37;94534.41;5036414;27;20053;-71
2022/05/24 00:43:59;;;;;;;2.85;2.08;;;;;;;15.90;67.06;94529.66;5037554;27;20041;-71
2022/05/24 00:46:32;;;;;;;3.17;1.95;;;;;;;15.72;67.83;94523.97;5034285;27;20474;-71
2022/05/24 00:49:04;;;;;;;3.20;2.03;;;;;;;15.73;68.56;94525.53;5039400;27;20041;-71
2022/05/24 00:51:59;;;;;;;4.38;2.33;;;;;;;15.65;69.46;94523.47;5041585;27;20447;-71
2022/05/24 00:54:26;;;;;;;3.65;2.25;;;;;;;15.64;70.20;94532.41;5038934;27;20052;-70
2022/05/24 00:57:07;;;;;;;7.68;2.58;;;;;;;15.61;70.71;94532.94;5084175;27;20545;-71
2022/05/24 00:59:53;;;;;;;3.65;1.98;;;;;;;15.56;72.33;94544.25;5081327;27;20530;-70
2022/05/24 01:02:20;;;;;;;3.60;2.63;;;;;;;15.55;72.24;94539.25;5061105;27;20052;-70
2022/05/24 01:04:48;;;;;;;3.35;2.60;;;;;;;15.66;72.82;94551.28;5057216;27;20037;-70
2022/05/24 01:07:16;;;;;;;3.95;2.28;;;;;;;15.73;72.69;94549.16;5054519;27;20041;-71
2022/05/24 01:10:01;;;;;;;5.40;2.80;;;;;;;15.78;72.89;94548.38;5085563;27;20037;-71
2022/05/24 01:12:34;;;;;;;3.88;2.25;;;;;;;15.85;72.33;94548.88;5031924;27;20045;-70
2022/05/24 01:15:05;;;;;;;2.67;2.17;;;;;;;15.92;72.44;94548.56;5074862;27;20119;-70
2022/05/24 01:17:34;;;;;;;4.00;3.00;;;;;;;15.89;72.88;94543.88;5080915;27;20519;-70
2022/05/24 01:20:02;;;;;;;6.15;2.17;;;;;;;15.90;72.64;94542.81;5051207;27;20117;-71
2022/05/24 01:22:45;;;;;;;3.90;2.58;;;;;;;15.90;72.82;94555.94;5036890;27;20681;-70
2022/05/24 01:25:37;;;;;;;2.47;1.92;;;;;;;15.86;73.29;94551.25;5069490;27;20043;-70
2022/05/24 01:28:11;;;;;;;3.05;2.40;;;;;;;15.92;73.26;94553.81;5040840;27;20483;-70
2022/05/24 01:30:37;;;;;;;3.30;2.25;;;;;;;15.96;72.92;94549.63;5073941;27;20041;-71
2022/05/24 01:38:36;;;;;;;2.53;2.08;;;;;;;15.93;73.51;94550.16;5069905;27;20037;-71
2022/05/24 01:41:03;;;;;;;3.33;2.15;;;;;;;15.88;73.99;94542.28;5065544;27;20039;-71
2022/05/24 01:43:31;;;;;;;5.75;2.85;;;;;;;15.84;73.83;94532.31;5080823;27;20041;-70
2022/05/24 01:46:02;;;;;;;7.63;2.88;;;;;;;15.85;73.92;94533.13;5082477;27;20070;-70
2022/05/24 01:48:38;;;;;;;7.63;2.78;;;;;;;15.66;74.05;94504.03;5041126;27;20076;-70
2022/05/24 01:51:08;;;;;;;4.82;2.95;;;;;;;15.71;75.18;94535.50;5069795;27;20038;-71
2022/05/24 01:53:41;;;;;;;3.47;2.58;;;;;;;15.73;75.46;94540.50;5037846;27;20041;-71
2022/05/24 01:56:47;;;;;;;7.88;2.25;;;;;;;15.70;75.40;94541.84;5042670;27;20037;-71
2022/05/24 01:59:17;;;;;;;5.03;2.65;;;;;;;15.63;76.11;94543.97;5072287;27;20052;-71
2022/05/24 02:01:51;;;;;;;4.93;2.78;;;;;;;15.53;76.04;94536.13;5066269;27;20066;-71
2022/05/24 02:04:20;;;;;;;4.18;2.15;;;;;;;15.63;76.01;94546.59;5040486;27;20045;-70
2022/05/24 02:07:08;;;;;;;3.38;2.60;;;;;;;15.53;77.02;94551.88;5036524;27;21482;-71
2022/05/24 02:09:40;;;;;;;4.38;2.30;;;;;;;15.53;76.75;94552.66;5034423;27;20512;-71
2022/05/24 02:12:17;;;;;;;4.95;2.30;;;;;;;15.57;76.85;94547.66;5064902;27;20438;-71
2022/05/24 02:15:07;;;;;;;2.50;2.30;;;;;;;15.48;77.01;94561.34;5054557;27;20037;-71
2022/05/24 02:17:57;;;;;;;4.53;2.38;;;;;;;15.44;77.10;94570.78;5048939;27;20046;-70
2022/05/24 02:20:34;;;;;;;5.45;2.60;;;;;;;15.40;77.32;94564.50;5079374;27;20149;-71
2022/05/24 02:23:01;;;;;;;2.72;2.28;;;;;;;15.36;77.66;94563.47;5061488;27;20043;-71
2022/05/24 02:25:36;;;;;;;5.78;3.60;;;;;;;15.30;77.83;94538.28;5047646;27;20041;-71
2022/05/24 02:28:08;;;;;;;2.38;2.17;;;;;;;15.38;78.01;94556.13;5042023;27;20049;-72
2022/05/24 02:30:39;;;;;;;4.30;2.22;;;;;;;15.38;77.41;94550.88;5043047;27;20516;-71
2022/05/24 02:33:06;;;;;;;3.35;2.50;;;;;;;15.33;77.37;94532.53;5080340;27;20083;-71
2022/05/24 02:35:33;;;;;;;2.85;2.40;;;;;;;15.35;78.01;94535.66;5050657;27;20587;-72
2022/05/24 02:38:00;;;;;;;3.45;2.05;;;;;;;15.24;78.26;94528.88;5035870;27;20041;-71
2022/05/24 02:43:12;;;;;;;3.35;2.40;;;;;;;15.35;78.05;94561.91;5035914;27;20511;-71
2022/05/24 02:45:39;;;;;;;4.25;2.42;;;;;;;15.23;78.30;94543.03;5037325;27;20045;-72
2022/05/24 02:48:07;;;;;;;4.47;1.90;;;;;;;15.27;78.82;94565.09;5058918;27;20473;-71
2022/05/24 02:50:34;;;;;;;4.32;2.42;;;;;;;15.00;78.75;94539.94;5039559;27;20474;-71
2022/05/24 02:53:01;;;;;;;2.58;2.20;;;;;;;15.17;78.83;94559.84;5038313;27;20037;-71
2022/05/24 02:55:28;;;;;;;4.78;2.08;;;;;;;15.12;79.53;94565.09;5004394;27;20045;-72
2022/05/24 02:57:55;;;;;;;4.18;2.30;;;;;;;15.07;79.60;94560.63;5037403;27;20112;-71
2022/05/24 03:00:24;;;;;;;2.65;2.22;;;;;;;15.09;79.86;94580.31;5035036;27;20173;-71
2022/05/24 03:02:52;;;;;;;2.20;2.00;;;;;;;15.09;80.16;94575.06;5041788;27;20053;-71
2022/05/24 03:05:25;;;;;;;3.47;2.80;;;;;;;15.03;80.86;94581.38;5037296;27;20128;-71
2022/05/24 03:10:37;;;;;;;2.35;1.95;;;;;;;15.03;81.10;94576.13;5134684;27;20505;-71
2022/05/24 03:15:50;;;;;;;3.05;2.17;;;;;;;15.14;80.62;94573.50;5040295;27;20051;-71
2022/05/24 03:18:19;;;;;;;3.22;2.50;;;;;;;15.06;81.25;94569.56;5041491;27;20649;-72
2022/05/24 03:20:46;;;;;;;6.18;3.03;;;;;;;14.99;81.40;94556.72;5040286;27;20041;-71
2022/05/24 03:23:14;;;;;;;8.18;2.33;;;;;;;15.04;81.53;94566.44;5039782;27;20048;-71
2022/05/24 03:25:41;;;;;;;3.17;2.45;;;;;;;15.09;81.45;94561.97;5041737;27;20053;-71
2022/05/24 03:28:09;;;;;;;3.20;2.40;;;;;;;15.09;81.38;94558.56;5037288;27;20041;-71
2022/05/24 03:30:40;;;;;;;5.78;2.83;;;;;;;15.15;80.89;94559.34;5040493;27;20507;-71
2022/05/24 03:33:08;;;;;;;5.05;2.20;;;;;;;15.15;81.29;94562.75;5038699;27;20049;-71
2022/05/24 03:35:35;;;;;;;4.28;2.90;;;;;;;15.13;81.15;94564.06;5035443;27;20040;-71
2022/05/24 03:38:03;;;;;;;5.82;3.10;;;;;;;15.10;82.13;94573.22;5039694;27;20051;-70
2022/05/24 03:40:30;;;;;;;6.22;2.88;;;;;;;15.13;81.83;94569.31;5035716;27;20084;-71
2022/05/24 03:42:57;;;;;;;6.28;2.83;;;;;;;15.19;81.83;94571.63;5036007;27;20045;-71
2022/05/24 03:45:25;;;;;;;3.25;2.50;;;;;;;15.19;81.19;94553.28;5039244;27;20474;-71
2022/05/24 03:47:52;;;;;;;2.88;2.28;;;;;;;15.25;81.35;94567.16;5051299;27;20313;-71
2022/05/24 03:50:22;;;;;;;4.68;2.60;;;;;;;15.31;81.13;94566.13;5038327;27;20484;-70
2022/05/24 03:52:49;;;;;;;4.55;2.40;;;;;;;15.29;81.58;94568.22;5038852;27;20447;-70
2022/05/24 03:55:16;;;;;;;3.80;2.40;;;;;;;15.33;80.85;94564.00;5034752;27;20041;-70
2022/05/24 03:58:02;;;;;;;6.15;2.70;;;;;;;15.48;80.76;94576.28;5038437;27;20888;-70
2022/05/24 04:00:34;;;;;;;4.93;3.10;;;;;;;15.54;80.47;94574.44;5045472;27;20124;-70
2022/05/24 04:03:02;;;;;;;4.07;3.15;;;;;;;15.44;80.99;94562.13;5030634;27;20143;-71
2022/05/24 04:05:30;;;;;;;8.00;2.75;;;;;;;15.52;80.37;94558.16;5045993;27;20042;-71
2022/05/24 04:07:59;;;;;;;7.65;2.75;;;;;;;15.61;80.62;94580.19;5062756;27;20445;-74
2022/05/24 04:10:32;;;;;;;3.47;3.10;;;;;;;15.65;80.44;94587.25;5041372;27;20049;-71
2022/05/24 04:13:00;;;;;;;6.72;3.92;;;;;;;15.64;79.91;94577.03;5046665;27;20486;-71
2022/05/24 04:15:28;;;;;;;7.55;4.95;;;;;;;15.64;80.00;94580.44;5040218;27;20040;-71
2022/05/24 04:17:55;;;;;;;7.32;2.90;;;;;;;15.68;79.74;94585.94;5051065;27;20503;-71
2022/05/24 04:20:25;;;;;;;17.95;3.72;;;;;;;15.69;79.72;94582.25;5032033;27;20033;-71
2022/05/24 04:22:54;;;;;;;4.25;2.30;;;;;;;15.71;79.75;94582.78;5053576;27;20048;-70
2022/05/24 04:25:22;;;;;;;3.60;2.42;;;;;;;15.81;79.46;94585.41;5046135;27;20140;-71
2022/05/24 04:27:49;;;;;;;5.07;2.72;;;;;;;15.72;80.58;94579.09;5051644;27;20071;-71
2022/05/24 04:30:20;;;;;;;3.20;2.35;;;;;;;15.74;80.41;94577.03;5081124;27;20087;-73
2022/05/24 04:32:49;;;;;;;5.70;2.67;;;;;;;15.70;81.03;94578.59;5047767;27;20055;-64
2022/05/24 04:35:16;;;;;;;3.90;2.30;;;;;;;15.72;81.66;94581.72;5059756;27;20117;-65
2022/05/24 04:37:43;;;;;;;5.10;2.65;;;;;;;15.75;81.31;94591.69;5043141;27;20568;-64
2022/05/24 04:40:10;;;;;;;8.80;2.13;;;;;;;15.78;80.93;94596.44;5044350;27;20169;-64
2022/05/24 04:42:38;;;;;;;2.95;2.10;;;;;;;15.86;80.61;94592.44;5055669;27;20053;-64
2022/05/24 04:45:10;;;;;;;5.40;2.35;;;;;;;15.98;80.32;94589.53;5044394;27;20048;-64
2022/05/24 04:47:38;;;;;;;3.40;2.78;;;;;;;15.94;80.11;94578.75;5055038;27;20535;-64
2022/05/24 04:50:08;;;;;;;5.65;2.90;;;;;;;16.01;80.83;94591.63;5074468;27;20560;-64
2022/05/24 04:52:39;;;;;;;3.30;2.53;;;;;;;16.16;80.64;94588.13;5065846;27;20047;-65
2022/05/24 04:55:09;;;;;;;4.47;2.70;;;;;;;16.14;80.80;94588.38;5068284;27;20386;-64
2022/05/24 04:57:36;;;;;;;8.52;3.53;;;;;;;16.22;80.08;94585.19;5069457;27;20477;-65
2022/05/24 05:00:06;;;;;;;4.95;2.08;;;;;;;16.27;80.59;94596.72;5073487;27;20152;-65
2022/05/24 05:02:34;;;;;;;4.53;2.40;;;;;;;16.33;80.70;94611.38;5072435;27;20400;-64
2022/05/24 05:05:01;;;;;;;3.67;2.42;;;;;;;16.41;80.21;94618.72;5083169;27;20515;-65
2022/05/24 05:07:28;;;;;;;3.22;2.70;;;;;;;16.53;79.93;94616.53;5072247;27;20056;-65
2022/05/24 05:09:59;;;;;;;6.00;2.53;;;;;;;16.48;79.33;94608.69;5077614;27;20527;-65
2022/05/24 05:12:26;;;;;;;2.95;2.40;;;;;;;16.52;79.00;94614.19;5075338;27;20062;-65
2022/05/24 05:14:53;;;;;;;5.50;2.45;;;;;;;16.52;79.34;94609.69;5045086;27;20040;-64
2022/05/24 05:17:20;;;;;;;5.03;2.97;;;;;;;16.59;78.90;94620.69;5084364;27;20052;-65
2022/05/24 05:19:47;;;;;;;2.67;2.05;;;;;;;16.68;78.25;94617.50;5079220;27;20439;-64
2022/05/24 05:22:20;;;;;;;3.63;2.60;;;;;;;16.63;77.68;94610.41;5069068;27;20040;-65
2022/05/24 05:24:47;;;;;;;3.10;2.40;;;;;;;16.67;77.82;94621.94;5057120;27;20063;-64
2022/05/24 05:27:15;;;;;;;4.05;2.58;;;;;;;16.76;78.38;94614.25;5054458;27;20156;-64
2022/05/24 05:32:31;;;;;;;5.10;2.60;;;;;;;16.98;77.87;94627.81;5074110;27;20045;-65
2022/05/24 05:34:59;;;;;;;4.07;2.80;;;;;;;17.16;75.95;94628.16;5080468;27;20057;-64
2022/05/24 05:37:28;;;;;;;4.20;2.88;;;;;;;17.23;74.00;94618.09;5058763;27;20928;-64
2022/05/24 05:39:55;;;;;;;3.42;3.13;;;;;;;17.38;73.14;94625.88;5075236;27;20418;-64
2022/05/24 05:42:22;;;;;;;5.22;2.90;;;;;;;17.44;72.61;94633.72;5052987;27;20039;-64
2022/05/24 05:44:49;;;;;;;6.32;2.70;;;;;;;17.53;71.82;94626.78;5054708;27;20148;-64
2022/05/24 05:47:17;;;;;;;10.80;3.03;;;;;;;17.42;72.54;94609.53;5053976;27;20938;-64
2022/05/24 05:49:45;;;;;;;3.70;2.35;;;;;;;17.50;72.41;94627.31;5062221;27;20435;-64
2022/05/24 05:52:14;;;;;;;3.33;2.15;;;;;;;17.62;72.56;94625.09;5055780;27;20086;-63
2022/05/24 05:54:41;;;;;;;3.50;2.50;;;;;;;17.76;72.83;94626.00;5054917;27;20061;-64
2022/05/24 05:57:10;;;;;;;4.10;2.83;;;;;;;18.00;72.18;94630.47;5068773;27;20041;-64
2022/05/24 05:59:38;;;;;;;5.82;2.70;;;;;;;18.20;71.42;94633.94;5082535;27;20043;-64
2022/05/24 06:02:05;;;;;;;2.50;2.05;;;;;;;18.45;69.64;94636.22;5079914;27;20047;-64
2022/05/24 06:04:32;;;;;;;2.92;2.28;;;;;;;18.59;69.32;94654.78;5075063;27;20048;-65
2022/05/24 06:06:59;;;;;;;3.22;2.47;;;;;;;18.77;67.68;94649.78;5054804;27;20064;-65
2022/05/24 06:09:26;;;;;;;3.25;2.35;;;;;;;18.94;68.20;94649.28;5068351;27;20627;-64
2022/05/24 06:11:59;;;;;;;7.10;3.83;;;;;;;19.14;66.24;94656.91;5053809;27;20132;-65
2022/05/24 06:14:26;;;;;;;5.80;2.38;;;;;;;19.32;66.05;94652.63;5067898;27;20085;-64
2022/05/24 06:17:17;;;;;;;3.30;2.40;;;;;;;19.41;66.32;94658.81;5053402;27;20095;-65
2022/05/24 06:19:44;;;;;;;2.30;2.05;;;;;;;19.56;64.37;94657.75;5074772;27;20052;-65
2022/05/24 06:22:10;;;;;;;3.83;2.75;;;;;;;19.56;64.69;94652.47;5092207;27;20044;-64
2022/05/24 06:24:37;;;;;;;4.93;2.10;;;;;;;19.49;65.49;94641.50;5083815;27;20476;-66
2022/05/24 06:27:05;;;;;;;2.50;2.30;;;;;;;19.26;64.24;94641.34;5071047;27;20060;-65
2022/05/24 06:29:32;;;;;;;4.07;2.50;;;;;;;19.20;64.60;94642.53;5093626;27;20041;-66
2022/05/24 06:32:01;;;;;;;2.72;2.33;;;;;;;19.33;65.12;94648.13;5038385;27;20098;-65
2022/05/24 06:34:32;;;;;;;3.00;2.08;;;;;;;19.43;65.90;94647.97;5073454;27;20049;-65
2022/05/24 06:36:59;;;;;;;4.22;2.65;;;;;;;19.53;64.34;94653.06;5080053;27;20045;-64
2022/05/24 06:39:27;;;;;;;2.95;2.65;;;;;;;19.52;64.20;94653.34;5131727;27;20041;-65
2022/05/24 06:41:59;;;;;;;3.25;2.72;;;;;;;19.67;64.35;94645.94;5071460;27;20060;-75
2022/05/24 06:44:27;;;;;;;3.45;2.03;;;;;;;19.81;63.94;94642.56;5069728;27;20499;-71
2022/05/24 06:46:54;;;;;;;2.97;2.55;;;;;;;19.95;64.21;94648.63;5064050;27;20104;-72
2022/05/24 06:49:21;;;;;;;5.35;2.55;;;;;;;20.07;63.23;94639.41;5072679;27;20056;-74
2022/05/24 06:51:48;;;;;;;5.38;2.50;;;;;;;20.44;62.16;94649.72;5078654;27;20042;-73
2022/05/24 06:54:15;;;;;;;6.50;2.90;;;;;;;20.60;61.37;94641.47;5034818;27;20523;-72
2022/05/24 06:56:42;;;;;;;4.03;2.53;;;;;;;20.67;60.21;94630.47;5065858;27;20536;-74
2022/05/24 07:04:40;;;;;;;5.25;2.75;;;;;;;20.97;58.61;94626.34;5078281;27;20129;-72
2022/05/24 07:07:07;;;;;;;5.05;2.33;;;;;;;21.18;58.56;94635.38;5041860;27;20052;-72
2022/05/24 07:09:34;;;;;;;5.15;2.42;;;;;;;21.20;57.81;94619.19;5075295;27;20038;-71
2022/05/24 07:12:02;;;;;;;3.05;2.75;;;;;;;21.32;57.65;94634.50;5074432;27;20547;-72
2022/05/24 07:14:35;;;;;;;3.30;2.30;;;;;;;21.41;57.99;94637.19;5065729;27;20609;-72
2022/05/24 07:17:02;;;;;;;3.20;2.25;;;;;;;21.39;57.37;94629.56;5082603;27;20052;-71
2022/05/24 07:19:30;;;;;;;10.30;2.78;;;;;;;21.63;55.89;94644.38;5053055;27;20047;-72
2022/05/24 07:21:57;;;;;;;4.18;2.30;;;;;;;21.66;56.65;94643.75;5043744;27;20443;-71
2022/05/24 07:24:24;;;;;;;3.45;2.58;;;;;;;21.67;56.92;94645.31;5060517;27;20041;-71
2022/05/24 07:26:51;;;;;;;3.63;2.63;;;;;;;21.65;56.08;94652.78;5074160;27;20052;-71
2022/05/24 07:29:21;;;;;;;2.60;2.40;;;;;;;21.84;55.30;94656.00;5044213;27;20705;-71
2022/05/24 07:31:49;;;;;;;3.15;2.22;;;;;;;22.07;55.51;94653.25;5065629;27;20045;-70
2022/05/24 07:34:16;;;;;;;6.93;2.45;;;;;;;22.17;53.73;94645.00;5072155;27;20815;-72
2022/05/24 07:36:43;;;;;;;2.72;2.33;;;;;;;22.28;55.41;94643.66;5081546;27;20527;-71
2022/05/24 07:39:10;;;;;;;3.55;2.40;;;;;;;22.60;53.57;94644.34;5045121;27;20041;-71
2022/05/24 07:47:31;;;;;;;5.60;2.67;;;;;;;22.79;51.97;94635.28;5047936;27;20033;-71
2022/05/24 07:49:58;;;;;;;2.90;2.60;;;;;;;22.83;52.48;94625.56;5046838;27;20097;-72
2022/05/24 07:52:26;;;;;;;5.65;2.28;;;;;;;23.05;51.94;94635.28;5117188;27;20052;-72
2022/05/24 07:54:53;;;;;;;4.05;2.45;;;;;;;23.12;52.41;94637.44;5039440;27;20435;-73
2022/05/24 07:57:19;;;;;;;5.07;2.80;;;;;;;23.26;51.57;94633.53;5066648;27;20497;-72
2022/05/24 07:59:51;;;;;;;5.00;2.88;;;;;;;23.31;51.23;94619.28;5037405;27;20049;-72
2022/05/24 08:02:19;;;;;;;2.75;2.40;;;;;;;23.29;50.11;94632.13;5070854;27;20044;-72
2022/05/24 08:04:46;;;;;;;4.00;2.45;;;;;;;23.09;51.52;94623.72;5037129;27;20037;-72
2022/05/24 08:07:14;;;;;;;4.47;2.63;;;;;;;23.45;50.85;94624.41;5046337;27;20037;-71
2022/05/24 08:09:40;;;;;;;4.38;3.33;;;;;;;23.65;49.17;94618.41;5068303;27;20042;-72
2022/05/24 08:12:08;;;;;;;4.53;2.50;;;;;;;23.81;48.70;94626.66;5051999;27;20492;-72
2022/05/24 08:14:34;;;;;;;4.57;2.75;;;;;;;23.87;48.35;94634.47;5016784;27;20044;-74
2022/05/24 08:17:02;;;;;;;7.57;2.88;;;;;;;24.05;48.76;94625.28;5017147;27;20502;-72
2022/05/24 08:19:36;;;;;;;3.85;2.83;;;;;;;24.16;49.09;94625.69;5059838;27;20041;-72
2022/05/24 08:22:03;;;;;;;5.22;3.42;;;;;;;24.20;47.30;94619.44;5051423;27;20069;-72
2022/05/24 08:24:30;;;;;;;6.38;3.30;;;;;;;24.17;47.47;94617.41;5052586;27;20448;-72
2022/05/24 08:26:57;;;;;;;4.10;3.30;;;;;;;24.26;47.50;94620.00;5048660;27;20049;-72
2022/05/24 08:29:24;;;;;;;4.25;2.70;;;;;;;24.43;47.52;94632.41;5049103;27;20160;-72
2022/05/24 08:31:51;;;;;;;4.32;2.95;;;;;;;24.47;45.78;94625.38;5062060;27;20041;-72
2022/05/24 08:34:18;;;;;;;6.07;2.85;;;;;;;24.77;46.91;94627.97;5038562;27;20535;-72
2022/05/24 08:36:45;;;;;;;4.15;3.17;;;;;;;24.98;46.77;94628.72;5032495;27;20515;-72
2022/05/24 08:39:12;;;;;;;3.40;3.05;;;;;;;25.04;44.94;94626.63;5044555;27;20456;-72
2022/05/24 08:42:11;;;;;;;3.78;2.75;;;;;;;25.26;44.39;94628.19;5036135;27;20375;-72
2022/05/24 08:50:19;;;;;;;11.65;5.63;;;;;;;25.84;42.94;94630.03;5039562;27;20116;-72
2022/05/24 08:52:54;;;;;;;19.75;9.02;;;;;;;26.09;42.39;94642.34;5124292;27;20072;-72
2022/05/24 08:55:21;;;;;;;14.68;8.10;;;;;;;26.31;41.63;94648.31;5038307;27;20603;-72
2022/05/24 08:57:51;;;;;;;5.43;3.65;;;;;;;26.33;40.56;94630.06;5047362;27;20036;-72
2022/05/24 09:00:24;;;;;;;8.52;4.22;;;;;;;26.07;40.66;94633.88;5042360;27;20039;-72
2022/05/24 09:02:51;;;;;;;8.23;3.85;;;;;;;25.95;41.88;94639.22;5040866;27;20451;-72
2022/05/24 09:05:29;;;;;;;7.35;4.20;;;;;;;25.55;43.03;94634.47;5042712;27;20041;-72
2022/05/24 09:08:21;;;;;;;3.90;3.42;;;;;;;25.05;43.98;94622.09;5048876;27;20041;-71
2022/05/24 09:11:03;;;;;;;5.97;3.70;;;;;;;25.15;43.91;94625.13;5042800;27;20041;-72
2022/05/24 09:14:08;;;;;;;5.10;3.72;;;;;;;24.88;43.52;94623.03;5036825;27;20446;-72
2022/05/24 09:16:46;;;;;;;6.55;3.22;;;;;;;25.11;44.13;94615.47;5042170;27;20029;-72
2022/05/24 09:19:32;;;;;;;9.65;4.03;;;;;;;25.55;44.26;94613.13;5049041;27;20129;-72
2022/05/24 09:22:02;;;;;;;21.27;4.15;;;;;;;25.56;44.04;94614.69;5040914;27;20045;-72
2022/05/24 09:24:41;;;;;;;10.27;4.07;;;;;;;25.59;43.68;94619.38;5048460;27;20511;-72
2022/05/24 09:27:18;;;;;;;4.38;3.65;;;;;;;25.88;43.65;94610.38;5041526;27;20041;-72
2022/05/24 09:29:54;;;;;;;5.47;3.85;;;;;;;26.40;41.83;94619.59;5040527;27;20203;-72
2022/05/24 09:32:29;;;;;;;6.63;3.55;;;;;;;26.41;41.38;94615.03;5038087;27;20068;-71
2022/05/24 09:35:06;;;;;;;12.93;3.67;;;;;;;26.82;41.30;94613.94;5039046;27;20080;-72
2022/05/24 09:37:33;;;;;;;5.38;4.15;;;;;;;27.10;40.61;94618.53;5050237;27;20044;-72
2022/05/24 09:40:06;;;;;;;4.43;3.92;;;;;;;27.46;39.64;94624.84;5041496;27;20044;-72
2022/05/24 09:42:36;;;;;;;8.52;3.55;;;;;;;27.98;39.73;94623.81;5034979;27;20536;-72
2022/05/24 09:45:09;;;;;;;5.60;3.78;;;;;;;28.32;36.98;94620.72;5040468;27;20598;-72
2022/05/24 09:47:49;;;;;;;5.22;3.90;;;;;;;28.31;37.43;94624.56;5040335;27;20482;-72
2022/05/24 09:50:30;;;;;;;9.48;4.03;;;;;;;28.78;37.30;94624.41;5037758;27;20118;-72
2022/05/24 09:53:02;;;;;;;5.25;4.00;;;;;;;28.86;37.59;94616.53;5042352;27;20056;-72
2022/05/24 09:55:41;;;;;;;7.10;4.75;;;;;;;29.02;37.15;94605.72;5038273;27;20041;-72
2022/05/24 09:58:31;;;;;;;7.93;4.07;;;;;;;29.07;36.84;94600.84;5039856;27;20495;-72
2022/05/24 10:01:06;;;;;;;5.93;4.88;;;;;;;28.91;37.92;94603.59;5034220;27;20045;-72
2022/05/24 10:03:45;;;;;;;6.20;4.07;;;;;;;28.77;37.03;94604.13;5046709;27;20037;-72
2022/05/24 10:06:24;;;;;;;17.75;5.13;;;;;;;28.84;37.69;94602.69;5039411;27;20064;-72
2022/05/24 10:09:01;;;;;;;5.78;3.72;;;;;;;28.85;37.07;94609.63;5041043;27;20049;-73
2022/05/24 10:11:42;;;;;;;7.50;3.90;;;;;;;28.70;38.07;94603.97;5040879;27;20131;-72
2022/05/24 10:14:30;;;;;;;5.30;4.05;;;;;;;28.85;37.11;94604.25;5037991;27;20041;-72
2022/05/24 10:17:14;;;;;;;8.80;4.95;;;;;;;28.67;38.35;94602.00;5039433;27;20056;-72
2022/05/24 10:20:05;;;;;;;8.47;4.90;;;;;;;28.42;38.11;94599.53;5031786;27;20049;-72
2022/05/24 10:23:02;;;;;;;6.78;5.07;;;;;;;28.33;38.86;94601.66;5048922;27;20467;-71
2022/05/24 10:25:55;;;;;;;6.72;4.60;;;;;;;28.31;38.69;94606.56;5038473;27;20110;-72
2022/05/24 10:28:38;;;;;;;7.70;5.25;;;;;;;28.35;39.33;94610.09;5033639;27;20777;-71
2022/05/24 10:31:15;;;;;;;6.45;4.45;;;;;;;27.97;38.92;94589.38;5029799;27;20045;-72
2022/05/24 10:40:16;;;;;;;10.05;5.13;;;;;;;29.07;36.98;94584.00;5056178;27;20049;-70
2022/05/24 10:43:00;;;;;;;7.00;4.03;;;;;;;29.46;37.83;94573.97;5034784;27;20029;-71
2022/05/24 10:45:52;;;;;;;5.63;4.07;;;;;;;29.74;35.93;94573.69;5043113;27;20048;-71
2022/05/24 10:48:34;;;;;;;5.28;4.32;;;;;;;30.20;35.98;94572.81;5034148;27;20037;-71
2022/05/24 10:51:15;;;;;;;6.38;4.38;;;;;;;30.91;35.00;94566.78;5070767;27;20051;-71
2022/05/24 10:53:48;;;;;;;7.45;4.80;;;;;;;31.11;33.90;94569.34;5034160;27;20171;-71
2022/05/24 10:56:39;;;;;;;8.88;4.40;;;;;;;31.24;33.98;94562.53;5129095;27;20045;-70
2022/05/24 10:59:23;;;;;;;7.50;4.70;;;;;;;31.35;33.99;94568.81;5036800;27;20053;-71
2022/05/24 11:01:56;;;;;;;;;;;;;;;31.16;33.90;94574.38;5036563;27;20516;-71
2022/05/24 11:04:42;;;;;;;6.82;4.70;;;;;;;30.96;33.80;94568.44;5047845;27;19925;-70
2022/05/24 11:07:14;;;;;;;9.30;4.93;;;;;;;30.84;34.23;94566.72;5035181;27;20101;-70
2022/05/24 11:10:09;;;;;;;5.47;4.47;;;;;;;30.42;35.01;94562.41;5059777;27;20216;-70
2022/05/24 11:12:43;;;;;;;7.65;4.22;;;;;;;30.88;34.78;94562.16;5127542;27;20490;-71
2022/05/24 11:15:42;;;;;;;8.45;5.13;;;;;;;30.75;34.48;94547.41;5053088;27;20047;-70
2022/05/24 11:18:15;;;;;;;6.13;4.07;;;;;;;31.04;34.32;94543.94;5065992;27;20045;-71
2022/05/24 11:20:50;;;;;;;11.02;4.68;;;;;;;31.47;33.59;94538.16;5036864;27;20033;-71
2022/05/24 11:23:40;;;;;;;10.80;4.55;;;;;;;31.48;32.99;94533.56;5061801;27;20451;-71
2022/05/24 11:26:15;;;;;;;8.63;4.80;;;;;;;31.47;33.16;94534.69;5038829;27;20098;-71
2022/05/24 11:28:50;;;;;;;6.28;4.95;;;;;;;31.30;33.60;94536.88;5035730;27;20109;-71
2022/05/24 11:31:21;;;;;;;6.65;4.57;;;;;;;31.27;34.09;94534.91;5057877;27;20044;-71
2022/05/24 11:33:48;;;;;;;8.65;4.68;;;;;;;31.61;32.99;94526.75;5067840;27;20137;-71
2022/05/24 11:36:36;;;;;;;9.57;5.25;;;;;;;31.61;34.11;94526.75;5061666;27;20052;-70
2022/05/24 11:39:34;;;;;;;16.58;5.40;;;;;;;31.39;33.47;94515.81;5067880;27;20042;-72
2022/05/24 11:42:19;;;;;;;12.82;5.50;;;;;;;31.50;33.64;94515.91;5068440;27;20053;-71
2022/05/24 11:44:46;;;;;;;13.40;5.35;;;;;;;31.35;33.31;94509.63;5035268;27;20435;-72
2022/05/24 11:47:34;;;;;;;7.60;4.72;;;;;;;31.46;32.65;94509.72;5056904;27;20040;-73
2022/05/24 11:50:04;;;;;;;7.32;4.60;;;;;;;32.00;31.42;94489.31;5036287;27;20117;-73
2022/05/24 11:52:45;;;;;;;10.80;4.80;;;;;;;32.73;30.42;94487.72;5031292;27;20537;-73
2022/05/24 11:56:10;;;;;;;6.60;4.32;;;;;;;32.61;30.95;94474.59;5034721;27;20055;-72
2022/05/24 11:58:37;;;;;;;8.90;4.60;;;;;;;31.98;31.65;94480.06;5041227;27;20121;-72
2022/05/24 12:01:09;;;;;;;8.32;5.10;;;;;;;31.75;32.88;94489.19;5036342;27;20052;-73
2022/05/24 12:10:21;;;;;;;9.32;4.88;;;;;;;31.30;32.64;94469.63;5047866;27;20037;-72
2022/05/24 12:13:03;;;;;;;10.80;5.55;;;;;;;31.50;33.24;94464.03;5042678;27;20519;-72
2022/05/24 12:15:30;;;;;;;6.18;5.07;;;;;;;31.60;32.93;94471.38;5050722;27;20041;-75
2022/05/24 12:17:58;;;;;;;15.60;5.40;;;;;;;31.25;33.07;94478.03;5038409;27;20060;-75
2022/05/24 12:20:49;;;;;;;11.18;4.93;;;;;;;31.32;32.66;94477.31;5049302;27;20039;-75
2022/05/24 12:23:34;;;;;;;9.45;5.38;;;;;;;31.72;32.56;94473.75;5054355;27;20116;-75
2022/05/24 12:26:03;;;;;;;7.32;4.30;;;;;;;32.52;31.53;94475.72;5060267;27;20487;-75
2022/05/24 12:28:36;;;;;;;9.05;4.93;;;;;;;32.94;31.02;94476.97;5036742;27;20044;-77
2022/05/24 12:31:16;;;;;;;11.40;5.05;;;;;;;32.27;31.84;94477.53;5037429;27;20049;-75
2022/05/24 12:33:52;;;;;;;7.68;4.68;;;;;;;31.79;32.07;94473.81;5070398;27;20059;-75
2022/05/24 12:36:34;;;;;;;6.78;4.80;;;;;;;32.65;30.99;94472.69;5036024;27;20536;-75
2022/05/24 12:39:21;;;;;;;7.45;4.60;;;;;;;33.94;29.37;94467.31;5039824;27;20519;-77
2022/05/24 12:41:56;;;;;;;6.50;4.47;;;;;;;34.76;28.66;94471.66;5033360;27;20156;-76
2022/05/24 12:44:30;;;;;;;6.72;4.78;;;;;;;34.60;28.05;94479.47;5047030;27;20049;-76
2022/05/24 12:47:06;;;;;;;6.65;4.10;;;;;;;34.17;29.65;94485.78;5036367;27;20033;-76